Terminal Aerodrome Forecast
Issued by NWS Sterling, VA

Current Version | Previous Version | Graphics & Text | Print | Product List | Glossary On
Versions: 1 2 3 4 5 6 7 8 9 10 11 12 13 14 15 16 17 18 19 20 21 22
000
FTUS41 KLWX 200526
TAFIAD
TAF
KIAD 200526Z 2006/2112 28010G18KT P6SM BKN050
     FM200800 29008KT P6SM FEW050
     FM201400 27008G16KT P6SM FEW250
     FM201800 24008KT P6SM FEW250
     FM202300 21005KT P6SM FEW250=

USA.gov is the U.S. government's official web portal to all federal, state and local government web resources and services.